Time;durP1;ratioP1;P1;durP2;ratioP2;P2;SDS_P1;SDS_P2;PMS_P1;PMS_P2;Temp;Humidity;BMP_temperature;BMP_pressure;BME280_temperature;BME280_humidity;BME280_pressure;Samples;Min_cycle;Max_cycle;Signal;HPM_P1;HPM_P2
2022/04/13 00:00:12;;;;;;;37.80;9.80;;;12.50;24.10;;;;;;5041642;28;20458;-57
2022/04/13 00:02:39;;;;;;;37.57;10.13;;;12.40;23.80;;;;;;5047787;28;20460;-57
2022/04/13 00:05:09;;;;;;;37.60;9.30;;;12.40;23.90;;;;;;5043862;28;20486;-57
2022/04/13 00:07:36;;;;;;;38.20;9.77;;;12.40;23.80;;;;;;5044472;28;20465;-57
2022/04/13 00:10:05;;;;;;;39.97;9.73;;;12.40;23.90;;;;;;5044055;28;20470;-57
2022/04/13 00:12:31;;;;;;;38.77;10.70;;;12.40;23.80;;;;;;5046083;28;20477;-57
2022/04/13 00:14:58;;;;;;;35.70;8.73;;;12.40;23.80;;;;;;5043829;28;20466;-58
2022/04/13 00:17:25;;;;;;;36.70;9.70;;;12.40;24.00;;;;;;5044912;28;20458;-57
2022/04/13 00:19:51;;;;;;;36.63;9.00;;;12.40;23.80;;;;;;5042050;28;20473;-58
2022/04/13 00:22:19;;;;;;;39.90;10.40;;;12.40;23.80;;;;;;5043306;28;20473;-57
2022/04/13 00:24:46;;;;;;;38.43;10.53;;;12.40;24.10;;;;;;5045276;28;21010;-57
2022/04/13 00:27:13;;;;;;;39.83;11.60;;;12.40;24.20;;;;;;5041326;28;20466;-57
2022/04/13 00:29:40;;;;;;;39.37;12.10;;;12.40;24.00;;;;;;5041411;28;20466;-58
2022/04/13 00:32:07;;;;;;;37.40;9.90;;;12.30;24.10;;;;;;5045996;28;20474;-57
2022/04/13 00:34:34;;;;;;;38.33;10.37;;;12.40;24.10;;;;;;5045564;28;20495;-57
2022/04/13 00:37:01;;;;;;;40.30;11.63;;;12.40;24.20;;;;;;5050814;28;20466;-57
2022/04/13 00:39:29;;;;;;;42.90;11.67;;;12.40;24.20;;;;;;5047635;28;20454;-57
2022/04/13 00:41:58;;;;;;;39.40;10.77;;;12.30;24.50;;;;;;5049863;28;20813;-56
2022/04/13 00:44:27;;;;;;;38.77;10.70;;;12.30;24.40;;;;;;5044553;28;20846;-57
2022/04/13 00:46:54;;;;;;;37.37;9.87;;;12.30;24.30;;;;;;5050205;28;21000;-57
2022/04/13 00:49:22;;;;;;;37.70;10.30;;;12.30;24.20;;;;;;5051021;28;20510;-57
2022/04/13 00:51:49;;;;;;;40.27;11.87;;;12.30;24.10;;;;;;5047876;28;20915;-58
2022/04/13 00:54:18;;;;;;;40.17;10.77;;;12.30;24.10;;;;;;5046302;28;20489;-58
2022/04/13 00:56:49;;;;;;;35.50;9.53;;;12.30;24.10;;;;;;5048007;28;20466;-58
2022/04/13 00:59:17;;;;;;;39.17;9.87;;;12.30;24.40;;;;;;5046882;28;20468;-58
2022/04/13 01:01:47;;;;;;;36.13;9.43;;;12.30;24.20;;;;;;5047821;28;20480;-57
2022/04/13 01:04:14;;;;;;;37.20;10.70;;;12.30;24.30;;;;;;5044547;28;20516;-58
2022/04/13 01:06:42;;;;;;;37.90;9.87;;;12.20;24.00;;;;;;5048995;28;20461;-56
2022/04/13 01:09:11;;;;;;;42.13;10.60;;;12.20;24.20;;;;;;5045977;28;20467;-57
2022/04/13 01:11:38;;;;;;;38.60;10.07;;;12.20;24.50;;;;;;5045518;28;20469;-58
2022/04/13 01:14:07;;;;;;;36.80;10.20;;;12.20;24.50;;;;;;5046655;28;20999;-57
2022/04/13 01:16:38;;;;;;;37.47;10.37;;;12.10;24.50;;;;;;5048198;28;20458;-59
2022/04/13 01:19:06;;;;;;;37.57;10.80;;;12.10;24.70;;;;;;5048245;28;20549;-58
2022/04/13 01:21:42;;;;;;;42.57;10.30;;;12.10;24.80;;;;;;5050453;28;20505;-58
2022/04/13 01:24:11;;;;;;;39.10;9.90;;;12.10;24.80;;;;;;5043641;28;20576;-58
2022/04/13 01:26:38;;;;;;;38.40;9.80;;;12.10;24.70;;;;;;5050526;28;20468;-57
2022/04/13 01:29:05;;;;;;;38.20;9.30;;;12.00;24.50;;;;;;5045344;28;20461;-62
2022/04/13 01:31:33;;;;;;;37.20;8.80;;;12.00;24.80;;;;;;5057372;28;20481;-58
2022/04/13 01:34:00;;;;;;;37.83;10.33;;;12.00;24.70;;;;;;5044194;28;20493;-57
2022/04/13 01:36:27;;;;;;;36.80;9.67;;;12.00;25.10;;;;;;5052339;28;20466;-58
2022/04/13 01:38:54;;;;;;;38.60;11.50;;;12.00;24.50;;;;;;5048860;28;20457;-57
2022/04/13 01:41:22;;;;;;;38.50;11.57;;;12.00;24.20;;;;;;5046253;28;20462;-57
2022/04/13 01:43:49;;;;;;;37.43;10.70;;;12.00;24.20;;;;;;5051063;28;20505;-57
2022/04/13 01:46:15;;;;;;;37.70;11.30;;;12.00;24.10;;;;;;5039940;28;20988;-58
2022/04/13 01:48:42;;;;;;;35.97;9.70;;;12.00;24.60;;;;;;5049665;28;20457;-58
2022/04/13 01:51:09;;;;;;;35.80;9.80;;;12.00;24.60;;;;;;5044360;28;20462;-58
2022/04/13 01:53:36;;;;;;;40.23;11.53;;;12.00;25.10;;;;;;5040582;28;20834;-58
2022/04/13 01:56:03;;;;;;;35.43;9.40;;;11.90;25.00;;;;;;5048696;28;20489;-58
2022/04/13 01:58:31;;;;;;;36.90;10.93;;;11.90;24.80;;;;;;5049357;28;20458;-57
2022/04/13 02:00:58;;;;;;;41.03;10.63;;;11.90;24.90;;;;;;5040912;28;20996;-57
2022/04/13 02:03:26;;;;;;;36.20;9.23;;;11.90;25.20;;;;;;5044176;28;20866;-57
2022/04/13 02:05:53;;;;;;;38.67;9.93;;;11.90;25.30;;;;;;5051244;28;20570;-60
2022/04/13 02:08:20;;;;;;;38.27;10.27;;;11.80;25.10;;;;;;5042944;28;20454;-57
2022/04/13 02:10:47;;;;;;;36.87;10.37;;;11.80;25.20;;;;;;5044584;28;20458;-58
2022/04/13 02:13:14;;;;;;;37.60;10.40;;;11.80;25.40;;;;;;5045304;28;20482;-58
2022/04/13 02:15:42;;;;;;;40.00;10.30;;;11.80;25.70;;;;;;5044857;28;20469;-57
2022/04/13 02:18:09;;;;;;;37.97;10.33;;;11.80;25.40;;;;;;5046662;28;20466;-57
2022/04/13 02:20:36;;;;;;;36.00;9.17;;;11.80;25.10;;;;;;5046554;28;20462;-58
2022/04/13 02:23:03;;;;;;;36.80;9.20;;;11.80;25.20;;;;;;5045494;28;20492;-57
2022/04/13 02:25:30;;;;;;;38.20;9.03;;;11.70;25.00;;;;;;5051317;28;20481;-57
2022/04/13 02:27:56;;;;;;;40.33;8.97;;;11.70;25.00;;;;;;5056080;28;20557;-58
2022/04/13 02:30:23;;;;;;;35.40;8.17;;;11.70;25.10;;;;;;5043120;28;20466;-59
2022/04/13 02:32:51;;;;;;;37.20;9.13;;;11.60;25.00;;;;;;5043878;28;20482;-58
2022/04/13 02:35:18;;;;;;;39.23;9.60;;;11.60;24.90;;;;;;5044160;28;20469;-57
2022/04/13 02:37:45;;;;;;;39.23;10.20;;;11.60;24.60;;;;;;5052084;28;20955;-57
2022/04/13 02:40:13;;;;;;;36.97;8.70;;;11.60;24.50;;;;;;5047947;28;20462;-56
2022/04/13 02:42:40;;;;;;;36.20;9.20;;;11.60;24.50;;;;;;5044765;28;20485;-58
2022/04/13 02:45:08;;;;;;;37.63;9.77;;;11.50;24.80;;;;;;5042694;28;21262;-58
2022/04/13 02:47:35;;;;;;;38.50;9.70;;;11.50;24.70;;;;;;5042371;28;20473;-58
2022/04/13 02:50:06;;;;;;;39.30;9.93;;;11.50;24.80;;;;;;5046305;28;21021;-59
2022/04/13 02:52:33;;;;;;;40.03;8.67;;;11.50;24.60;;;;;;5056339;28;20989;-58
2022/04/13 02:55:00;;;;;;;38.20;9.20;;;11.50;24.50;;;;;;5047665;28;20982;-58
2022/04/13 02:57:27;;;;;;;36.57;8.53;;;11.50;24.40;;;;;;5044875;28;20472;-56
2022/04/13 02:59:54;;;;;;;36.13;8.80;;;11.40;24.30;;;;;;5043682;28;20462;-57
2022/04/13 03:02:21;;;;;;;38.87;9.70;;;11.40;24.30;;;;;;5046731;28;20470;-57
2022/04/13 03:04:49;;;;;;;37.87;8.60;;;11.30;24.20;;;;;;5045812;28;20484;-57
2022/04/13 03:07:18;;;;;;;37.27;8.77;;;11.30;24.30;;;;;;5042446;28;20462;-59
2022/04/13 03:09:46;;;;;;;38.70;8.97;;;11.30;24.60;;;;;;5044258;28;20488;-58
2022/04/13 03:12:13;;;;;;;37.43;8.97;;;11.30;24.50;;;;;;5045757;28;20466;-57
2022/04/13 03:14:41;;;;;;;37.03;9.27;;;11.20;24.60;;;;;;5043115;28;21111;-58
2022/04/13 03:17:08;;;;;;;37.30;9.47;;;11.10;24.80;;;;;;5043791;28;20458;-57
2022/04/13 03:19:35;;;;;;;37.53;9.37;;;11.10;24.70;;;;;;5052915;28;20955;-60
2022/04/13 03:22:02;;;;;;;37.87;9.20;;;11.00;24.80;;;;;;5055797;28;20535;-58
2022/04/13 03:24:30;;;;;;;36.70;9.17;;;11.00;24.80;;;;;;5048320;28;20501;-57
2022/04/13 03:26:57;;;;;;;37.37;9.30;;;11.00;25.00;;;;;;5044992;28;20477;-58
2022/04/13 03:29:24;;;;;;;44.43;10.10;;;10.90;25.30;;;;;;5046004;28;21228;-57
2022/04/13 03:31:51;;;;;;;38.80;10.40;;;10.90;25.50;;;;;;5045241;28;20473;-59
2022/04/13 03:34:20;;;;;;;36.83;9.30;;;10.90;25.40;;;;;;5047307;28;20488;-58
2022/04/13 03:36:47;;;;;;;38.50;9.63;;;10.80;25.60;;;;;;5044525;28;20462;-58
2022/04/13 03:39:14;;;;;;;38.50;8.97;;;10.80;26.10;;;;;;5046466;28;20469;-58
2022/04/13 03:41:43;;;;;;;39.20;10.17;;;10.70;26.50;;;;;;5042072;28;20462;-57
2022/04/13 03:44:10;;;;;;;39.20;9.90;;;10.60;26.50;;;;;;5045338;28;20493;-57
2022/04/13 03:46:37;;;;;;;49.03;9.20;;;10.50;26.70;;;;;;5040486;28;20486;-58
2022/04/13 03:49:03;;;;;;;36.87;10.10;;;10.50;27.10;;;;;;5046544;28;20462;-58
2022/04/13 03:51:30;;;;;;;39.63;10.13;;;10.40;27.30;;;;;;5043885;28;20469;-57
2022/04/13 03:53:57;;;;;;;38.90;9.63;;;10.40;27.30;;;;;;5045404;28;20486;-58
2022/04/13 03:56:24;;;;;;;37.33;9.37;;;10.30;27.20;;;;;;5047195;28;20545;-59
2022/04/13 03:58:52;;;;;;;36.67;8.57;;;10.30;27.30;;;;;;5046067;28;20466;-58
2022/04/13 04:01:19;;;;;;;36.40;8.30;;;10.30;27.10;;;;;;5038557;28;20471;-58
2022/04/13 04:03:45;;;;;;;38.73;8.63;;;10.20;26.40;;;;;;5043932;28;21038;-57
2022/04/13 04:06:12;;;;;;;36.20;7.47;;;10.20;26.10;;;;;;5041983;28;20483;-57
2022/04/13 04:08:39;;;;;;;37.97;8.73;;;10.20;26.00;;;;;;5043318;28;20458;-57
2022/04/13 04:11:06;;;;;;;36.30;7.30;;;10.10;25.90;;;;;;5043052;28;20466;-57
2022/04/13 04:13:33;;;;;;;37.53;6.77;;;10.10;25.60;;;;;;5047903;28;20551;-57
2022/04/13 04:16:01;;;;;;;35.90;6.70;;;10.10;25.10;;;;;;5042095;28;20474;-59
2022/04/13 04:18:28;;;;;;;36.77;6.43;;;10.10;24.50;;;;;;5046003;28;20462;-59
2022/04/13 04:20:55;;;;;;;36.30;7.20;;;10.10;24.00;;;;;;5042903;28;20474;-58
2022/04/13 04:23:22;;;;;;;37.67;8.73;;;10.10;24.00;;;;;;5048039;28;20485;-57
2022/04/13 04:25:49;;;;;;;35.90;8.00;;;10.10;24.40;;;;;;5048307;28;20482;-58
2022/04/13 04:28:16;;;;;;;36.87;7.57;;;10.10;24.40;;;;;;5047719;28;20468;-59
2022/04/13 04:30:43;;;;;;;38.17;9.87;;;10.10;25.10;;;;;;5040727;28;21237;-58
2022/04/13 04:33:19;;;;;;;38.20;7.70;;;10.00;24.60;;;;;;5066575;28;20462;-58
2022/04/13 04:35:47;;;;;;;38.33;8.63;;;10.00;24.60;;;;;;5046925;28;20540;-58
2022/04/13 04:38:14;;;;;;;39.00;7.73;;;10.00;24.40;;;;;;5046418;28;20469;-57
2022/04/13 04:40:41;;;;;;;36.57;8.20;;;10.00;24.30;;;;;;5043388;28;20469;-58
2022/04/13 04:43:08;;;;;;;37.13;7.97;;;9.90;24.50;;;;;;5046694;28;21183;-57
2022/04/13 04:45:34;;;;;;;41.17;8.60;;;9.90;24.90;;;;;;5039760;28;20489;-58
2022/04/13 04:48:04;;;;;;;36.43;8.23;;;9.90;25.00;;;;;;5037703;28;20466;-57
2022/04/13 04:50:34;;;;;;;37.43;7.50;;;9.90;24.90;;;;;;5041305;28;20473;-57
2022/04/13 04:53:01;;;;;;;37.53;7.40;;;9.90;25.00;;;;;;5046751;28;20540;-57
2022/04/13 04:57:58;;;;;;;37.90;9.07;;;9.90;24.70;;;;;;5041663;23;20582;-59
2022/04/13 05:00:25;;;;;;;36.50;8.37;;;9.90;24.70;;;;;;5022026;28;20460;-60
2022/04/13 05:02:53;;;;;;;40.63;9.37;;;9.90;24.80;;;;;;5023740;28;20461;-60
2022/04/13 05:05:21;;;;;;;37.17;8.00;;;10.00;24.80;;;;;;5030658;28;20486;-61
2022/04/13 05:07:49;;;;;;;37.53;7.93;;;10.10;24.70;;;;;;5020250;28;20991;-60
2022/04/13 05:10:16;;;;;;;36.03;9.40;;;10.20;24.50;;;;;;5019998;28;20546;-60
2022/04/13 05:12:44;;;;;;;36.47;8.57;;;10.40;24.10;;;;;;5022393;28;20853;-62
2022/04/13 05:15:12;;;;;;;35.53;7.83;;;10.40;24.20;;;;;;5032187;28;20454;-61
2022/04/13 05:17:39;;;;;;;37.30;7.87;;;10.50;24.20;;;;;;5022676;28;20521;-60
2022/04/13 05:20:07;;;;;;;36.70;9.30;;;10.60;24.00;;;;;;5022518;28;20481;-60
2022/04/13 05:22:34;;;;;;;40.60;8.77;;;10.70;24.10;;;;;;5026350;28;20458;-60
2022/04/13 05:25:08;;;;;;;36.80;8.70;;;10.80;23.90;;;;;;5025156;28;22328;-61
2022/04/13 05:27:35;;;;;;;40.40;8.50;;;11.00;23.80;;;;;;5042310;28;20474;-60
2022/04/13 05:30:03;;;;;;;38.80;8.27;;;11.20;23.60;;;;;;5033310;28;20474;-60
2022/04/13 05:32:30;;;;;;;35.73;8.10;;;11.50;23.80;;;;;;5027567;28;20505;-61
2022/04/13 05:35:00;;;;;;;36.00;8.40;;;11.80;23.60;;;;;;5035130;28;20486;-61
2022/04/13 05:37:28;;;;;;;36.40;8.87;;;12.10;23.00;;;;;;5028021;28;21134;-60
2022/04/13 05:39:54;;;;;;;37.03;9.40;;;12.40;21.90;;;;;;5023215;28;20463;-61
2022/04/13 05:42:24;;;;;;;36.13;8.53;;;12.80;21.50;;;;;;5031597;28;20490;-61
2022/04/13 05:44:51;;;;;;;37.40;9.20;;;13.20;19.90;;;;;;5032816;28;20955;-61
2022/04/13 05:47:18;;;;;;;35.07;8.60;;;13.50;19.00;;;;;;5028708;28;21207;-60
2022/04/13 05:49:45;;;;;;;35.50;7.43;;;13.80;18.10;;;;;;5031740;28;20983;-61
2022/04/13 05:52:12;;;;;;;33.90;7.73;;;14.10;17.30;;;;;;5029494;28;20490;-61
2022/04/13 05:54:38;;;;;;;34.23;8.13;;;14.50;16.30;;;;;;5021613;28;20523;-60
2022/04/13 05:57:06;;;;;;;35.93;8.00;;;15.10;15.50;;;;;;5030381;28;20490;-61
2022/04/13 05:59:34;;;;;;;36.83;8.90;;;15.80;14.60;;;;;;5031031;28;20532;-61
2022/04/13 06:02:01;;;;;;;45.13;16.37;;;16.70;13.30;;;;;;5028754;28;20490;-60
2022/04/13 06:04:27;;;;;;;38.77;13.60;;;17.80;11.80;;;;;;5032169;28;20475;-59
2022/04/13 06:06:55;;;;;;;36.60;9.87;;;18.90;10.20;;;;;;5034520;28;20489;-62
2022/04/13 06:09:22;;;;;;;35.40;8.60;;;19.90;8.60;;;;;;5027487;28;20471;-62
2022/04/13 06:11:49;;;;;;;33.17;7.40;;;20.90;6.40;;;;;;5034520;28;21095;-61
2022/04/13 06:14:15;;;;;;;32.70;7.80;;;22.10;4.70;;;;;;5022506;28;20466;-60
2022/04/13 06:16:44;;;;;;;31.80;6.63;;;23.10;3.00;;;;;;5019592;28;20483;-61
2022/04/13 06:19:11;;;;;;;32.30;7.07;;;24.10;1.80;;;;;;5023290;28;20547;-60
2022/04/13 06:21:38;;;;;;;31.10;6.43;;;25.20;1.00;;;;;;5024309;28;20462;-60
2022/04/13 06:24:05;;;;;;;31.23;7.63;;;26.10;1.00;;;;;;5028306;28;21442;-62
2022/04/13 06:26:32;;;;;;;30.00;7.37;;;27.00;1.00;;;;;;5027768;28;20566;-61
2022/04/13 06:28:59;;;;;;;32.23;6.97;;;27.80;1.00;;;;;;5027671;28;20463;-62
2022/04/13 06:31:25;;;;;;;31.93;7.43;;;28.30;1.00;;;;;;5019365;28;20490;-63
2022/04/13 06:33:53;;;;;;;30.97;7.90;;;29.00;1.00;;;;;;5024163;28;20459;-62
2022/04/13 06:36:21;;;;;;;32.27;6.77;;;29.80;1.00;;;;;;5025547;28;20475;-61
2022/04/13 06:38:48;;;;;;;33.13;7.67;;;30.60;1.00;;;;;;5021864;28;20471;-61
2022/04/13 06:41:15;;;;;;;31.07;6.40;;;31.00;1.00;;;;;;5026182;28;20486;-62
2022/04/13 06:43:42;;;;;;;29.63;6.50;;;31.50;1.00;;;;;;5025787;28;21089;-63
2022/04/13 06:46:09;;;;;;;29.77;6.33;;;32.20;1.00;;;;;;5018067;28;20487;-61
2022/04/13 06:48:36;;;;;;;29.07;7.03;;;32.60;1.00;;;;;;5021648;28;20473;-62
2022/04/13 06:51:04;;;;;;;34.20;6.60;;;32.30;1.00;;;;;;5023041;28;20463;-62
2022/04/13 06:53:31;;;;;;;29.17;6.90;;;33.20;1.00;;;;;;5029211;28;20459;-63
2022/04/13 06:55:58;;;;;;;30.07;7.33;;;34.20;1.00;;;;;;5022017;28;21036;-63
2022/04/13 06:58:25;;;;;;;27.73;7.17;;;35.10;1.00;;;;;;5024584;28;20849;-62
2022/04/13 07:00:52;;;;;;;27.90;6.70;;;36.00;1.00;;;;;;5025113;28;20570;-62
2022/04/13 07:03:19;;;;;;;27.03;7.20;;;36.70;1.00;;;;;;5029243;28;20463;-63
2022/04/13 07:05:45;;;;;;;29.00;7.30;;;37.50;1.00;;;;;;5026059;28;20487;-65
2022/04/13 07:08:13;;;;;;;27.53;6.33;;;38.10;1.00;;;;;;5023892;28;20467;-63
2022/04/13 07:10:40;;;;;;;26.30;6.87;;;38.70;1.00;;;;;;5019729;28;20466;-61
2022/04/13 07:13:08;;;;;;;25.60;5.90;;;39.30;1.00;;;;;;5024131;28;20494;-62
2022/04/13 07:15:34;;;;;;;27.63;6.43;;;39.70;1.00;;;;;;5022171;28;20470;-61
2022/04/13 07:18:01;;;;;;;28.57;6.53;;;40.10;1.00;;;;;;5021766;28;20471;-61
2022/04/13 07:20:28;;;;;;;24.97;6.33;;;40.50;1.00;;;;;;5027154;28;20455;-62
2022/04/13 07:22:55;;;;;;;24.80;5.80;;;41.00;1.00;;;;;;5022943;28;20455;-63
2022/04/13 07:25:24;;;;;;;26.50;6.70;;;41.40;1.00;;;;;;5023913;28;20484;-62
2022/04/13 07:27:51;;;;;;;26.90;6.60;;;41.70;1.00;;;;;;5024976;28;20505;-61
2022/04/13 07:30:18;;;;;;;27.80;6.73;;;42.20;1.00;;;;;;5016364;28;20470;-60
2022/04/13 07:32:45;;;;;;;27.60;6.60;;;42.70;1.00;;;;;;5014043;28;20463;-62
2022/04/13 07:35:12;;;;;;;24.60;6.20;;;43.40;1.00;;;;;;5027166;28;20474;-62
2022/04/13 07:37:40;;;;;;;33.70;7.77;;;43.80;1.00;;;;;;5026141;28;20475;-60
2022/04/13 07:40:10;;;;;;;27.37;6.93;;;44.20;1.00;;;;;;5014061;28;20491;-60
2022/04/13 07:42:38;;;;;;;28.13;6.90;;;44.40;1.00;;;;;;5017130;28;20486;-59
2022/04/13 07:45:06;;;;;;;26.50;6.87;;;44.50;1.00;;;;;;5022387;28;21193;-61
2022/04/13 07:47:33;;;;;;;25.30;6.70;;;44.80;1.00;;;;;;5024942;28;20482;-60
2022/04/13 07:50:00;;;;;;;24.50;6.23;;;45.00;1.00;;;;;;5026401;28;20474;-61
2022/04/13 07:52:27;;;;;;;26.80;6.90;;;45.00;1.00;;;;;;5024198;28;20467;-59
2022/04/13 07:54:54;;;;;;;25.33;6.50;;;44.40;1.00;;;;;;5026129;28;20462;-59
2022/04/13 07:57:20;;;;;;;26.87;7.00;;;44.60;1.00;;;;;;5025597;28;20499;-59
2022/04/13 07:59:48;;;;;;;26.53;6.47;;;45.00;1.00;;;;;;5021486;28;20466;-59
2022/04/13 08:02:19;;;;;;;24.67;6.23;;;45.50;1.00;;;;;;5023769;28;20479;-59
2022/04/13 08:04:46;;;;;;;24.40;6.73;;;46.20;1.00;;;;;;5020899;28;20467;-59
2022/04/13 08:07:13;;;;;;;24.10;6.40;;;46.80;1.00;;;;;;5030056;28;20482;-58
2022/04/13 08:09:40;;;;;;;23.40;6.13;;;47.30;1.00;;;;;;5030650;28;20467;-59
2022/04/13 08:12:07;;;;;;;24.90;6.10;;;47.60;1.00;;;;;;5020703;28;20467;-59
2022/04/13 08:14:34;;;;;;;23.70;6.13;;;47.80;1.00;;;;;;5026991;28;20471;-59
2022/04/13 08:17:03;;;;;;;23.17;5.97;;;48.10;1.00;;;;;;5019333;28;20505;-59
2022/04/13 08:19:30;;;;;;;25.20;6.80;;;48.30;1.00;;;;;;5021751;28;20554;-59
2022/04/13 08:21:57;;;;;;;24.30;6.67;;;48.20;1.00;;;;;;5024628;28;20467;-59
2022/04/13 08:24:24;;;;;;;25.40;6.70;;;48.40;1.00;;;;;;5025158;28;20471;-59
2022/04/13 08:26:51;;;;;;;23.57;6.43;;;48.60;1.00;;;;;;5026130;28;20489;-59
2022/04/13 08:29:17;;;;;;;26.20;6.33;;;48.80;1.00;;;;;;5015277;28;20472;-59
2022/04/13 08:31:44;;;;;;;26.23;6.77;;;48.80;1.00;;;;;;5029677;28;20486;-59
2022/04/13 08:34:12;;;;;;;24.60;6.80;;;49.00;1.00;;;;;;5022780;28;20547;-59
2022/04/13 08:36:39;;;;;;;23.50;6.43;;;49.20;1.00;;;;;;5030133;28;20478;-60
2022/04/13 08:39:13;;;;;;;25.00;7.07;;;49.00;1.00;;;;;;5027395;28;20952;-59
2022/04/13 08:41:47;;;;;;;23.67;6.27;;;49.20;1.00;;;;;;5016591;28;20529;-59
2022/04/13 08:44:17;;;;;;;24.90;7.40;;;49.30;1.00;;;;;;5016336;28;20456;-60
2022/04/13 08:46:47;;;;;;;23.27;6.70;;;49.10;1.00;;;;;;5024156;28;20478;-59
2022/04/13 08:49:16;;;;;;;25.33;7.20;;;49.00;1.00;;;;;;5028668;28;20979;-59
2022/04/13 08:51:43;;;;;;;22.90;6.30;;;48.80;1.00;;;;;;5038112;28;20454;-59
2022/04/13 08:54:14;;;;;;;24.33;6.60;;;48.80;1.00;;;;;;5018298;28;20463;-59
2022/04/13 08:56:44;;;;;;;24.07;7.20;;;49.00;1.00;;;;;;5028086;28;20482;-60
2022/04/13 08:59:17;;;;;;;23.90;7.00;;;49.70;1.00;;;;;;5038332;28;20470;-60
2022/04/13 09:01:52;;;;;;;24.90;6.90;;;50.30;1.00;;;;;;5024189;28;20472;-60
2022/04/13 09:04:21;;;;;;;24.60;7.73;;;50.40;1.00;;;;;;5035180;28;20456;-59
2022/04/13 09:06:49;;;;;;;23.50;6.70;;;50.80;1.00;;;;;;5028748;28;20887;-59
2022/04/13 09:09:20;;;;;;;24.20;7.60;;;51.30;1.00;;;;;;5027592;28;21123;-60
2022/04/13 09:11:50;;;;;;;23.90;6.70;;;51.70;1.00;;;;;;5029241;28;20467;-61
2022/04/13 09:14:18;;;;;;;25.90;7.10;;;51.90;1.00;;;;;;5028730;28;20458;-60
2022/04/13 09:16:45;;;;;;;24.17;7.70;;;52.40;1.00;;;;;;5019941;28;20475;-59
2022/04/13 09:19:12;;;;;;;23.60;7.30;;;52.50;1.00;;;;;;5031518;28;20470;-59
2022/04/13 09:21:41;;;;;;;24.33;7.40;;;52.70;1.00;;;;;;5032574;28;20465;-59
2022/04/13 09:24:10;;;;;;;22.80;6.50;;;52.70;1.00;;;;;;5030460;28;20472;-60
2022/04/13 09:26:38;;;;;;;24.10;7.93;;;51.60;1.00;;;;;;5026616;28;20478;-59
2022/04/13 09:29:04;;;;;;;26.10;8.30;;;50.90;1.00;;;;;;5040070;28;20498;-59
2022/04/13 09:31:32;;;;;;;24.80;7.93;;;50.30;1.00;;;;;;5029855;28;20489;-59
2022/04/13 09:33:58;;;;;;;25.53;8.00;;;49.60;1.00;;;;;;5026917;28;20474;-59
2022/04/13 09:36:26;;;;;;;27.07;9.37;;;48.00;1.00;;;;;;5025236;28;20484;-59
2022/04/13 09:38:56;;;;;;;27.73;8.50;;;46.50;1.00;;;;;;5028501;28;20470;-58
2022/04/13 09:41:33;;;;;;;28.20;8.80;;;45.30;1.00;;;;;;5027526;28;20550;-58
2022/04/13 09:44:00;;;;;;;29.13;9.93;;;43.80;1.00;;;;;;5023338;28;20465;-59
2022/04/13 09:46:29;;;;;;;28.07;9.00;;;43.00;1.00;;;;;;5035542;28;20533;-59
2022/04/13 09:49:09;;;;;;;28.70;9.03;;;42.70;1.00;;;;;;5030567;28;21145;-59
2022/04/13 09:51:37;;;;;;;29.50;10.00;;;42.30;1.00;;;;;;5022171;28;20463;-58
2022/04/13 09:54:11;;;;;;;30.30;10.60;;;41.40;1.00;;;;;;5031004;28;20459;-59
2022/04/13 09:56:38;;;;;;;30.20;10.43;;;40.70;1.00;;;;;;5030780;28;20493;-59
2022/04/13 09:59:06;;;;;;;29.47;9.90;;;40.10;1.00;;;;;;5033896;28;20470;-59
2022/04/13 10:01:34;;;;;;;31.60;10.70;;;40.10;1.00;;;;;;5031619;28;20513;-59
2022/04/13 10:04:03;;;;;;;33.00;10.53;;;40.10;1.00;;;;;;5021438;28;21122;-59
2022/04/13 10:06:30;;;;;;;33.00;10.90;;;40.10;1.00;;;;;;5027124;28;20573;-59
2022/04/13 10:09:01;;;;;;;30.70;10.13;;;40.20;1.00;;;;;;5026329;28;20910;-59
2022/04/13 10:11:29;;;;;;;31.80;10.77;;;40.90;1.00;;;;;;5034104;28;20491;-59
2022/04/13 10:13:56;;;;;;;29.93;10.37;;;42.20;1.00;;;;;;5028075;28;20480;-60
2022/04/13 10:16:23;;;;;;;33.97;11.83;;;43.10;1.00;;;;;;5021553;28;20483;-60
2022/04/13 10:18:54;;;;;;;31.20;11.20;;;43.30;1.00;;;;;;5024097;28;20470;-60
2022/04/13 10:21:35;;;;;;;31.10;10.80;;;42.90;1.00;;;;;;5030386;28;20459;-60
2022/04/13 10:24:02;;;;;;;31.33;10.90;;;42.90;1.00;;;;;;5029550;28;20500;-59
2022/04/13 10:26:31;;;;;;;29.70;10.50;;;43.70;1.00;;;;;;5027780;28;20486;-58
2022/04/13 10:28:57;;;;;;;27.90;9.13;;;44.30;1.00;;;;;;5022217;28;20842;-59
2022/04/13 10:31:24;;;;;;;29.37;10.60;;;44.70;1.00;;;;;;5028809;28;20479;-59
2022/04/13 10:33:53;;;;;;;30.00;10.87;;;44.80;1.00;;;;;;5028128;28;20547;-59
2022/04/13 10:36:20;;;;;;;28.60;9.47;;;44.70;1.00;;;;;;5034172;28;20517;-59
2022/04/13 10:38:47;;;;;;;32.30;9.47;;;44.40;1.00;;;;;;5027116;28;20455;-60
2022/04/13 10:41:16;;;;;;;29.13;9.60;;;43.50;1.00;;;;;;5025896;28;20845;-60
2022/04/13 10:43:48;;;;;;;29.20;9.40;;;42.20;1.00;;;;;;5025245;28;20571;-60
2022/04/13 10:46:18;;;;;;;31.60;10.50;;;41.50;1.00;;;;;;5030248;28;20484;-59
2022/04/13 10:48:51;;;;;;;31.13;9.23;;;41.10;1.00;;;;;;5020502;28;20633;-59
2022/04/13 10:51:23;;;;;;;30.50;9.70;;;40.60;1.00;;;;;;5039102;28;20470;-60
2022/04/13 10:53:57;;;;;;;30.70;10.03;;;40.20;1.00;;;;;;5020585;28;20852;-59
2022/04/13 10:56:27;;;;;;;32.93;10.20;;;40.20;1.00;;;;;;5029333;28;20487;-57
2022/04/13 10:59:02;;;;;;;29.47;9.00;;;40.00;1.00;;;;;;5025880;28;20461;-57
2022/04/13 11:01:32;;;;;;;31.60;9.80;;;39.60;1.00;;;;;;5025915;28;20478;-58
2022/04/13 11:03:59;;;;;;;30.77;9.50;;;38.60;1.00;;;;;;5025734;28;20546;-56
2022/04/13 11:06:28;;;;;;;30.23;9.33;;;37.50;1.00;;;;;;5025274;28;20478;-58
2022/04/13 11:08:58;;;;;;;32.07;11.20;;;36.60;1.00;;;;;;5025315;28;20487;-59
2022/04/13 11:11:28;;;;;;;32.37;10.67;;;35.50;1.00;;;;;;5021581;28;21002;-60
2022/04/13 11:13:57;;;;;;;31.10;9.90;;;34.50;1.00;;;;;;5020230;28;21156;-62
2022/04/13 11:16:24;;;;;;;31.17;10.13;;;33.70;1.00;;;;;;5026463;28;20482;-60
2022/04/13 11:19:19;;;;;;;36.50;11.33;;;33.10;1.00;;;;;;5022937;28;20466;-60
2022/04/13 11:22:16;;;;;;;35.17;11.00;;;32.60;1.00;;;;;;5012526;28;20509;-61
2022/04/13 11:24:56;;;;;;;37.57;10.90;;;32.00;1.00;;;;;;5025254;28;20463;-60
2022/04/13 11:27:25;;;;;;;34.50;11.73;;;31.60;1.00;;;;;;5020921;28;20496;-60
2022/04/13 11:30:04;;;;;;;34.47;10.93;;;31.10;1.00;;;;;;5022769;28;20467;-60
2022/04/13 11:32:33;;;;;;;33.13;10.97;;;30.70;1.00;;;;;;5024264;28;20475;-59
2022/04/13 11:35:02;;;;;;;35.00;10.53;;;30.30;1.00;;;;;;5025146;28;20550;-60
2022/04/13 11:37:43;;;;;;;33.50;10.37;;;30.00;1.00;;;;;;5022475;28;21043;-61
2022/04/13 11:40:13;;;;;;;36.30;10.00;;;29.70;1.00;;;;;;5022834;28;20528;-60
2022/04/13 11:43:01;;;;;;;32.63;8.00;;;29.40;1.00;;;;;;5018894;28;20471;-58
2022/04/13 11:45:30;;;;;;;32.03;7.77;;;29.00;1.00;;;;;;5022282;28;20459;-58
2022/04/13 11:48:04;;;;;;;31.97;7.50;;;28.80;1.00;;;;;;5018132;28;20513;-60
2022/04/13 11:50:33;;;;;;;32.43;7.80;;;28.50;1.00;;;;;;5030442;28;20861;-59
2022/04/13 11:53:03;;;;;;;33.10;8.90;;;28.30;1.00;;;;;;5024322;28;21224;-63
2022/04/13 11:55:37;;;;;;;33.30;8.90;;;28.10;1.00;;;;;;5020731;28;20517;-61
2022/04/13 11:58:25;;;;;;;32.87;8.17;;;27.90;1.00;;;;;;5022165;28;20459;-60
2022/04/13 12:00:55;;;;;;;31.57;8.77;;;27.70;1.00;;;;;;5025844;28;20972;-61
2022/04/13 12:03:25;;;;;;;31.13;6.50;;;27.60;1.00;;;;;;5027342;28;20487;-61
2022/04/13 12:05:54;;;;;;;29.83;6.47;;;27.50;1.00;;;;;;5026553;28;21285;-59
2022/04/13 12:08:22;;;;;;;32.37;10.20;;;27.50;1.00;;;;;;5023921;28;20485;-59
2022/04/13 12:10:51;;;;;;;31.33;7.30;;;27.30;1.00;;;;;;5024117;28;20463;-59
2022/04/13 12:13:18;;;;;;;33.00;7.47;;;27.20;1.00;;;;;;5030112;28;20462;-60
2022/04/13 12:15:47;;;;;;;31.43;7.20;;;27.10;1.00;;;;;;5030366;28;20475;-60
2022/04/13 12:18:15;;;;;;;29.77;6.37;;;27.00;1.00;;;;;;5023725;28;20455;-59
2022/04/13 12:20:42;;;;;;;29.40;5.87;;;27.00;1.00;;;;;;5022846;28;20501;-63
2022/04/13 12:23:20;;;;;;;30.30;5.90;;;26.90;1.00;;;;;;5024667;28;21010;-60
2022/04/13 12:25:49;;;;;;;30.47;5.77;;;26.70;1.00;;;;;;5023346;28;20458;-59
2022/04/13 12:28:16;;;;;;;31.80;5.43;;;26.60;1.00;;;;;;5026277;28;20483;-62
2022/04/13 12:30:43;;;;;;;29.77;6.90;;;26.50;1.00;;;;;;5019610;28;20475;-63
2022/04/13 12:33:21;;;;;;;29.53;4.77;;;26.40;1.00;;;;;;5029905;28;20470;-60
2022/04/13 12:35:50;;;;;;;28.67;4.97;;;26.20;1.00;;;;;;5025301;28;20459;-60
2022/04/13 12:38:25;;;;;;;30.77;6.17;;;26.00;1.00;;;;;;5030171;28;20455;-62
2022/04/13 12:41:05;;;;;;;32.00;7.97;;;25.90;1.00;;;;;;5024954;28;20450;-61
2022/04/13 12:43:33;;;;;;;31.87;6.60;;;25.90;1.00;;;;;;5034041;28;20459;-62
2022/04/13 12:46:08;;;;;;;31.73;5.87;;;25.60;1.00;;;;;;5024507;28;20487;-61
2022/04/13 12:48:37;;;;;;;33.93;5.17;;;25.50;1.00;;;;;;5027215;28;20478;-62